sensor_id;sensor_type;location;lat;lon;timestamp;P1;durP1;ratioP1;P2;durP2;ratioP2
6564;SDS011;3316;44.118;27.258;2023-08-06T00:01:12;21.25;;;14.70;;
6564;SDS011;3316;44.118;27.258;2023-08-06T00:03:37;24.38;;;14.48;;
6564;SDS011;3316;44.118;27.258;2023-08-06T00:06:04;18.25;;;14.02;;
6564;SDS011;3316;44.118;27.258;2023-08-06T00:08:31;19.20;;;14.23;;
6564;SDS011;3316;44.118;27.258;2023-08-06T00:10:56;21.02;;;13.93;;
6564;SDS011;3316;44.118;27.258;2023-08-06T00:13:21;18.85;;;14.60;;
6564;SDS011;3316;44.118;27.258;2023-08-06T00:15:47;19.15;;;14.38;;
6564;SDS011;3316;44.118;27.258;2023-08-06T00:18:12;20.90;;;15.23;;
6564;SDS011;3316;44.118;27.258;2023-08-06T00:20:38;18.55;;;13.98;;
6564;SDS011;3316;44.118;27.258;2023-08-06T00:23:05;18.98;;;14.20;;
6564;SDS011;3316;44.118;27.258;2023-08-06T00:25:31;24.73;;;14.50;;
6564;SDS011;3316;44.118;27.258;2023-08-06T00:27:56;19.42;;;14.82;;
6564;SDS011;3316;44.118;27.258;2023-08-06T00:30:21;17.27;;;15.32;;
6564;SDS011;3316;44.118;27.258;2023-08-06T00:32:47;17.73;;;15.55;;
6564;SDS011;3316;44.118;27.258;2023-08-06T00:35:12;15.57;;;13.70;;
6564;SDS011;3316;44.118;27.258;2023-08-06T00:37:38;21.17;;;14.85;;
6564;SDS011;3316;44.118;27.258;2023-08-06T00:40:04;19.75;;;15.55;;
6564;SDS011;3316;44.118;27.258;2023-08-06T00:42:31;18.42;;;15.30;;
6564;SDS011;3316;44.118;27.258;2023-08-06T00:44:56;21.95;;;16.00;;
6564;SDS011;3316;44.118;27.258;2023-08-06T00:47:22;18.25;;;13.90;;
6564;SDS011;3316;44.118;27.258;2023-08-06T00:49:48;19.45;;;15.15;;
6564;SDS011;3316;44.118;27.258;2023-08-06T00:52:13;18.52;;;14.82;;
6564;SDS011;3316;44.118;27.258;2023-08-06T00:54:39;20.20;;;15.45;;
6564;SDS011;3316;44.118;27.258;2023-08-06T00:57:05;16.85;;;15.05;;
6564;SDS011;3316;44.118;27.258;2023-08-06T00:59:33;18.70;;;15.68;;
6564;SDS011;3316;44.118;27.258;2023-08-06T01:02:00;24.45;;;15.65;;
6564;SDS011;3316;44.118;27.258;2023-08-06T01:04:26;20.63;;;14.80;;
6564;SDS011;3316;44.118;27.258;2023-08-06T01:06:55;22.10;;;15.35;;
6564;SDS011;3316;44.118;27.258;2023-08-06T01:17:28;21.58;;;15.38;;
6564;SDS011;3316;44.118;27.258;2023-08-06T01:19:54;21.13;;;16.33;;
6564;SDS011;3316;44.118;27.258;2023-08-06T01:22:20;20.63;;;15.63;;
6564;SDS011;3316;44.118;27.258;2023-08-06T01:24:46;23.05;;;16.38;;
6564;SDS011;3316;44.118;27.258;2023-08-06T01:27:17;26.45;;;16.27;;
6564;SDS011;3316;44.118;27.258;2023-08-06T01:30:06;26.77;;;17.20;;
6564;SDS011;3316;44.118;27.258;2023-08-06T01:32:36;21.52;;;16.90;;
6564;SDS011;3316;44.118;27.258;2023-08-06T01:35:06;19.58;;;17.13;;
6564;SDS011;3316;44.118;27.258;2023-08-06T01:37:35;19.98;;;17.08;;
6564;SDS011;3316;44.118;27.258;2023-08-06T01:40:01;20.45;;;16.80;;
6564;SDS011;3316;44.118;27.258;2023-08-06T01:42:32;27.77;;;17.13;;
6564;SDS011;3316;44.118;27.258;2023-08-06T01:44:57;19.42;;;15.88;;
6564;SDS011;3316;44.118;27.258;2023-08-06T01:47:22;28.17;;;17.02;;
6564;SDS011;3316;44.118;27.258;2023-08-06T01:49:48;23.33;;;16.95;;
6564;SDS011;3316;44.118;27.258;2023-08-06T01:52:13;20.20;;;14.93;;
6564;SDS011;3316;44.118;27.258;2023-08-06T01:54:39;22.33;;;14.88;;
6564;SDS011;3316;44.118;27.258;2023-08-06T01:57:04;18.90;;;14.48;;
6564;SDS011;3316;44.118;27.258;2023-08-06T01:59:30;19.63;;;15.95;;
6564;SDS011;3316;44.118;27.258;2023-08-06T02:01:55;22.75;;;15.45;;
6564;SDS011;3316;44.118;27.258;2023-08-06T02:04:21;18.40;;;15.55;;
6564;SDS011;3316;44.118;27.258;2023-08-06T02:06:46;18.75;;;15.73;;
6564;SDS011;3316;44.118;27.258;2023-08-06T02:09:12;23.42;;;16.67;;
6564;SDS011;3316;44.118;27.258;2023-08-06T02:11:37;20.55;;;16.27;;
6564;SDS011;3316;44.118;27.258;2023-08-06T02:14:03;19.38;;;16.95;;
6564;SDS011;3316;44.118;27.258;2023-08-06T02:16:28;20.13;;;16.58;;
6564;SDS011;3316;44.118;27.258;2023-08-06T02:18:53;25.67;;;17.00;;
6564;SDS011;3316;44.118;27.258;2023-08-06T02:21:19;17.77;;;15.57;;
6564;SDS011;3316;44.118;27.258;2023-08-06T02:23:44;22.17;;;16.23;;
6564;SDS011;3316;44.118;27.258;2023-08-06T02:26:10;17.10;;;14.73;;
6564;SDS011;3316;44.118;27.258;2023-08-06T02:28:35;23.27;;;15.27;;
6564;SDS011;3316;44.118;27.258;2023-08-06T02:31:01;22.98;;;17.77;;
6564;SDS011;3316;44.118;27.258;2023-08-06T02:33:26;21.00;;;17.50;;
6564;SDS011;3316;44.118;27.258;2023-08-06T02:35:58;24.70;;;16.73;;
6564;SDS011;3316;44.118;27.258;2023-08-06T02:38:25;21.20;;;16.67;;
6564;SDS011;3316;44.118;27.258;2023-08-06T02:40:50;22.17;;;17.30;;
6564;SDS011;3316;44.118;27.258;2023-08-06T02:43:15;19.77;;;16.73;;
6564;SDS011;3316;44.118;27.258;2023-08-06T02:45:41;24.10;;;17.15;;
6564;SDS011;3316;44.118;27.258;2023-08-06T02:48:06;22.00;;;16.70;;
6564;SDS011;3316;44.118;27.258;2023-08-06T02:50:37;23.20;;;17.75;;
6564;SDS011;3316;44.118;27.258;2023-08-06T02:53:06;22.30;;;17.98;;
6564;SDS011;3316;44.118;27.258;2023-08-06T02:55:32;21.45;;;17.90;;
6564;SDS011;3316;44.118;27.258;2023-08-06T02:57:59;26.45;;;17.60;;
6564;SDS011;3316;44.118;27.258;2023-08-06T03:00:25;21.00;;;17.85;;
6564;SDS011;3316;44.118;27.258;2023-08-06T03:02:50;21.23;;;16.40;;
6564;SDS011;3316;44.118;27.258;2023-08-06T03:05:16;22.20;;;17.75;;
6564;SDS011;3316;44.118;27.258;2023-08-06T03:07:41;22.95;;;17.77;;
6564;SDS011;3316;44.118;27.258;2023-08-06T03:10:07;24.40;;;18.42;;
6564;SDS011;3316;44.118;27.258;2023-08-06T03:12:32;21.95;;;18.13;;
6564;SDS011;3316;44.118;27.258;2023-08-06T03:14:58;22.13;;;16.88;;
6564;SDS011;3316;44.118;27.258;2023-08-06T03:17:23;28.23;;;17.90;;
6564;SDS011;3316;44.118;27.258;2023-08-06T03:19:49;19.52;;;17.02;;
6564;SDS011;3316;44.118;27.258;2023-08-06T03:22:14;23.98;;;17.52;;
6564;SDS011;3316;44.118;27.258;2023-08-06T03:24:39;19.83;;;17.45;;
6564;SDS011;3316;44.118;27.258;2023-08-06T03:27:05;23.25;;;16.73;;
6564;SDS011;3316;44.118;27.258;2023-08-06T03:29:30;31.65;;;18.10;;
6564;SDS011;3316;44.118;27.258;2023-08-06T03:31:56;23.42;;;17.92;;
6564;SDS011;3316;44.118;27.258;2023-08-06T03:34:21;27.25;;;16.27;;
6564;SDS011;3316;44.118;27.258;2023-08-06T03:36:47;21.23;;;16.13;;
6564;SDS011;3316;44.118;27.258;2023-08-06T03:39:12;28.83;;;16.58;;
6564;SDS011;3316;44.118;27.258;2023-08-06T03:41:39;24.00;;;16.23;;
6564;SDS011;3316;44.118;27.258;2023-08-06T03:44:04;18.80;;;15.13;;
6564;SDS011;3316;44.118;27.258;2023-08-06T03:46:30;19.35;;;16.48;;
6564;SDS011;3316;44.118;27.258;2023-08-06T03:48:58;26.83;;;15.65;;
6564;SDS011;3316;44.118;27.258;2023-08-06T03:51:24;19.63;;;14.85;;
6564;SDS011;3316;44.118;27.258;2023-08-06T03:53:50;20.25;;;15.50;;
6564;SDS011;3316;44.118;27.258;2023-08-06T03:56:15;23.83;;;15.38;;
6564;SDS011;3316;44.118;27.258;2023-08-06T03:58:41;23.38;;;14.32;;
6564;SDS011;3316;44.118;27.258;2023-08-06T04:01:06;18.02;;;14.57;;
6564;SDS011;3316;44.118;27.258;2023-08-06T04:03:32;24.27;;;15.77;;
6564;SDS011;3316;44.118;27.258;2023-08-06T04:05:57;20.05;;;14.75;;
6564;SDS011;3316;44.118;27.258;2023-08-06T04:08:23;18.05;;;14.38;;
6564;SDS011;3316;44.118;27.258;2023-08-06T04:10:51;16.73;;;13.20;;
6564;SDS011;3316;44.118;27.258;2023-08-06T04:13:17;13.63;;;12.18;;
6564;SDS011;3316;44.118;27.258;2023-08-06T04:15:43;21.55;;;13.52;;
6564;SDS011;3316;44.118;27.258;2023-08-06T04:18:09;20.88;;;13.25;;
6564;SDS011;3316;44.118;27.258;2023-08-06T04:20:34;15.95;;;13.32;;
6564;SDS011;3316;44.118;27.258;2023-08-06T04:23:04;18.05;;;13.07;;
6564;SDS011;3316;44.118;27.258;2023-08-06T04:25:31;15.55;;;13.18;;
6564;SDS011;3316;44.118;27.258;2023-08-06T04:27:57;24.13;;;12.50;;
6564;SDS011;3316;44.118;27.258;2023-08-06T04:30:22;14.30;;;11.00;;
6564;SDS011;3316;44.118;27.258;2023-08-06T04:32:49;14.20;;;12.68;;
6564;SDS011;3316;44.118;27.258;2023-08-06T04:35:15;14.48;;;11.90;;
6564;SDS011;3316;44.118;27.258;2023-08-06T04:37:41;17.58;;;11.90;;
6564;SDS011;3316;44.118;27.258;2023-08-06T04:40:06;17.30;;;12.10;;
6564;SDS011;3316;44.118;27.258;2023-08-06T04:42:32;18.02;;;12.40;;
6564;SDS011;3316;44.118;27.258;2023-08-06T04:44:58;15.10;;;11.90;;
6564;SDS011;3316;44.118;27.258;2023-08-06T04:47:23;18.42;;;13.00;;
6564;SDS011;3316;44.118;27.258;2023-08-06T04:49:50;16.48;;;12.80;;
6564;SDS011;3316;44.118;27.258;2023-08-06T04:52:16;13.90;;;11.25;;
6564;SDS011;3316;44.118;27.258;2023-08-06T04:54:43;17.92;;;11.77;;
6564;SDS011;3316;44.118;27.258;2023-08-06T04:57:08;17.42;;;13.10;;
6564;SDS011;3316;44.118;27.258;2023-08-06T04:59:34;18.52;;;12.32;;
6564;SDS011;3316;44.118;27.258;2023-08-06T05:01:59;15.75;;;11.50;;
6564;SDS011;3316;44.118;27.258;2023-08-06T05:04:25;16.73;;;12.15;;
6564;SDS011;3316;44.118;27.258;2023-08-06T05:06:50;14.30;;;12.10;;
6564;SDS011;3316;44.118;27.258;2023-08-06T05:09:16;21.38;;;11.65;;
6564;SDS011;3316;44.118;27.258;2023-08-06T05:11:41;16.90;;;11.63;;
6564;SDS011;3316;44.118;27.258;2023-08-06T05:14:06;14.75;;;12.13;;
6564;SDS011;3316;44.118;27.258;2023-08-06T05:16:32;14.88;;;11.00;;
6564;SDS011;3316;44.118;27.258;2023-08-06T05:18:57;14.77;;;11.32;;
6564;SDS011;3316;44.118;27.258;2023-08-06T05:21:23;14.55;;;11.82;;
6564;SDS011;3316;44.118;27.258;2023-08-06T05:23:48;17.02;;;11.23;;
6564;SDS011;3316;44.118;27.258;2023-08-06T05:26:14;16.23;;;10.88;;
6564;SDS011;3316;44.118;27.258;2023-08-06T05:28:43;14.00;;;9.98;;
6564;SDS011;3316;44.118;27.258;2023-08-06T05:31:09;15.43;;;10.20;;
6564;SDS011;3316;44.118;27.258;2023-08-06T05:33:34;16.73;;;9.90;;
6564;SDS011;3316;44.118;27.258;2023-08-06T05:35:59;15.38;;;9.27;;
6564;SDS011;3316;44.118;27.258;2023-08-06T05:38:25;15.38;;;9.20;;
6564;SDS011;3316;44.118;27.258;2023-08-06T05:40:50;13.07;;;10.27;;
6564;SDS011;3316;44.118;27.258;2023-08-06T05:43:16;13.95;;;10.32;;
6564;SDS011;3316;44.118;27.258;2023-08-06T05:45:45;12.65;;;9.35;;
6564;SDS011;3316;44.118;27.258;2023-08-06T05:48:11;17.90;;;10.63;;
6564;SDS011;3316;44.118;27.258;2023-08-06T05:50:37;12.50;;;9.52;;
6564;SDS011;3316;44.118;27.258;2023-08-06T05:53:03;15.77;;;9.60;;
6564;SDS011;3316;44.118;27.258;2023-08-06T05:55:28;16.67;;;10.25;;
6564;SDS011;3316;44.118;27.258;2023-08-06T05:57:53;18.27;;;10.45;;
6564;SDS011;3316;44.118;27.258;2023-08-06T06:00:20;14.02;;;9.80;;
6564;SDS011;3316;44.118;27.258;2023-08-06T06:02:46;16.88;;;10.18;;
6564;SDS011;3316;44.118;27.258;2023-08-06T06:05:11;14.90;;;8.95;;
6564;SDS011;3316;44.118;27.258;2023-08-06T06:07:37;12.30;;;9.70;;
6564;SDS011;3316;44.118;27.258;2023-08-06T06:10:02;16.38;;;9.88;;
6564;SDS011;3316;44.118;27.258;2023-08-06T06:12:28;13.88;;;9.15;;
6564;SDS011;3316;44.118;27.258;2023-08-06T06:14:53;16.05;;;9.98;;
6564;SDS011;3316;44.118;27.258;2023-08-06T06:17:19;13.20;;;9.23;;
6564;SDS011;3316;44.118;27.258;2023-08-06T06:19:44;10.07;;;8.68;;
6564;SDS011;3316;44.118;27.258;2023-08-06T06:22:10;14.75;;;8.48;;
6564;SDS011;3316;44.118;27.258;2023-08-06T06:24:35;11.30;;;8.00;;
6564;SDS011;3316;44.118;27.258;2023-08-06T06:27:00;15.07;;;9.73;;
6564;SDS011;3316;44.118;27.258;2023-08-06T06:29:26;13.77;;;9.00;;
6564;SDS011;3316;44.118;27.258;2023-08-06T06:31:51;17.30;;;8.63;;
6564;SDS011;3316;44.118;27.258;2023-08-06T06:34:17;10.73;;;8.80;;
6564;SDS011;3316;44.118;27.258;2023-08-06T06:36:42;11.40;;;8.68;;
6564;SDS011;3316;44.118;27.258;2023-08-06T06:39:08;17.05;;;9.30;;
6564;SDS011;3316;44.118;27.258;2023-08-06T06:41:33;11.13;;;8.45;;
6564;SDS011;3316;44.118;27.258;2023-08-06T06:43:59;12.43;;;8.30;;
6564;SDS011;3316;44.118;27.258;2023-08-06T06:46:24;13.77;;;9.00;;
6564;SDS011;3316;44.118;27.258;2023-08-06T06:48:49;11.95;;;8.88;;
6564;SDS011;3316;44.118;27.258;2023-08-06T06:51:15;16.02;;;7.90;;
6564;SDS011;3316;44.118;27.258;2023-08-06T06:53:40;13.60;;;8.15;;
6564;SDS011;3316;44.118;27.258;2023-08-06T06:56:06;12.13;;;7.75;;
6564;SDS011;3316;44.118;27.258;2023-08-06T06:58:32;11.27;;;7.78;;
6564;SDS011;3316;44.118;27.258;2023-08-06T07:00:57;9.20;;;7.65;;
6564;SDS011;3316;44.118;27.258;2023-08-06T07:03:23;11.48;;;7.60;;
6564;SDS011;3316;44.118;27.258;2023-08-06T07:05:49;14.45;;;7.50;;
6564;SDS011;3316;44.118;27.258;2023-08-06T07:08:15;12.27;;;8.20;;
6564;SDS011;3316;44.118;27.258;2023-08-06T07:10:40;8.93;;;7.05;;
6564;SDS011;3316;44.118;27.258;2023-08-06T07:13:07;10.93;;;7.63;;
6564;SDS011;3316;44.118;27.258;2023-08-06T07:15:33;16.60;;;9.93;;
6564;SDS011;3316;44.118;27.258;2023-08-06T07:17:58;17.17;;;9.10;;
6564;SDS011;3316;44.118;27.258;2023-08-06T07:20:24;10.10;;;7.38;;
6564;SDS011;3316;44.118;27.258;2023-08-06T07:22:49;14.13;;;8.70;;
6564;SDS011;3316;44.118;27.258;2023-08-06T07:25:15;10.45;;;9.02;;
6564;SDS011;3316;44.118;27.258;2023-08-06T07:27:41;10.77;;;7.88;;
6564;SDS011;3316;44.118;27.258;2023-08-06T07:30:07;11.77;;;7.47;;
6564;SDS011;3316;44.118;27.258;2023-08-06T07:32:33;12.35;;;7.70;;
6564;SDS011;3316;44.118;27.258;2023-08-06T07:34:59;10.30;;;7.50;;
6564;SDS011;3316;44.118;27.258;2023-08-06T07:37:26;11.80;;;7.75;;
6564;SDS011;3316;44.118;27.258;2023-08-06T07:39:57;14.18;;;7.60;;
6564;SDS011;3316;44.118;27.258;2023-08-06T07:42:23;11.27;;;7.63;;
6564;SDS011;3316;44.118;27.258;2023-08-06T07:44:55;9.55;;;7.82;;
6564;SDS011;3316;44.118;27.258;2023-08-06T07:47:21;10.90;;;7.63;;
6564;SDS011;3316;44.118;27.258;2023-08-06T07:49:47;10.95;;;7.60;;
6564;SDS011;3316;44.118;27.258;2023-08-06T07:52:13;12.02;;;7.25;;
6564;SDS011;3316;44.118;27.258;2023-08-06T07:54:38;13.20;;;8.40;;
6564;SDS011;3316;44.118;27.258;2023-08-06T07:57:04;25.17;;;13.95;;
6564;SDS011;3316;44.118;27.258;2023-08-06T07:59:30;13.13;;;8.15;;
6564;SDS011;3316;44.118;27.258;2023-08-06T08:01:55;13.63;;;8.20;;
6564;SDS011;3316;44.118;27.258;2023-08-06T08:04:21;9.98;;;7.40;;
6564;SDS011;3316;44.118;27.258;2023-08-06T08:06:46;12.95;;;6.88;;
6564;SDS011;3316;44.118;27.258;2023-08-06T08:09:12;11.10;;;7.50;;
6564;SDS011;3316;44.118;27.258;2023-08-06T08:11:38;10.77;;;7.10;;
6564;SDS011;3316;44.118;27.258;2023-08-06T08:14:04;9.30;;;7.13;;
6564;SDS011;3316;44.118;27.258;2023-08-06T08:16:29;10.95;;;7.10;;
6564;SDS011;3316;44.118;27.258;2023-08-06T08:18:55;10.30;;;7.47;;
6564;SDS011;3316;44.118;27.258;2023-08-06T08:21:20;12.70;;;7.20;;
6564;SDS011;3316;44.118;27.258;2023-08-06T08:23:46;9.00;;;7.10;;
6564;SDS011;3316;44.118;27.258;2023-08-06T08:26:11;9.48;;;6.97;;
6564;SDS011;3316;44.118;27.258;2023-08-06T08:28:37;10.48;;;7.20;;
6564;SDS011;3316;44.118;27.258;2023-08-06T08:31:02;12.60;;;7.28;;
6564;SDS011;3316;44.118;27.258;2023-08-06T08:33:27;9.52;;;7.03;;
6564;SDS011;3316;44.118;27.258;2023-08-06T08:35:53;8.90;;;6.50;;
6564;SDS011;3316;44.118;27.258;2023-08-06T08:38:18;10.55;;;6.85;;
6564;SDS011;3316;44.118;27.258;2023-08-06T08:40:47;10.93;;;7.07;;
6564;SDS011;3316;44.118;27.258;2023-08-06T08:43:16;13.82;;;7.57;;
6564;SDS011;3316;44.118;27.258;2023-08-06T08:45:44;12.45;;;6.72;;
6564;SDS011;3316;44.118;27.258;2023-08-06T08:48:14;9.20;;;7.18;;
6564;SDS011;3316;44.118;27.258;2023-08-06T08:50:42;9.65;;;7.47;;
6564;SDS011;3316;44.118;27.258;2023-08-06T08:53:09;12.73;;;6.82;;
6564;SDS011;3316;44.118;27.258;2023-08-06T08:55:38;11.45;;;6.95;;
6564;SDS011;3316;44.118;27.258;2023-08-06T08:58:04;8.93;;;7.07;;
6564;SDS011;3316;44.118;27.258;2023-08-06T09:00:30;11.65;;;7.50;;
6564;SDS011;3316;44.118;27.258;2023-08-06T09:02:56;10.10;;;6.55;;
6564;SDS011;3316;44.118;27.258;2023-08-06T09:05:23;10.63;;;6.72;;
6564;SDS011;3316;44.118;27.258;2023-08-06T09:07:53;8.30;;;6.80;;
6564;SDS011;3316;44.118;27.258;2023-08-06T09:10:23;11.20;;;6.80;;
6564;SDS011;3316;44.118;27.258;2023-08-06T09:12:50;11.43;;;6.80;;
6564;SDS011;3316;44.118;27.258;2023-08-06T09:15:18;12.73;;;7.20;;
6564;SDS011;3316;44.118;27.258;2023-08-06T09:17:43;13.10;;;6.88;;
6564;SDS011;3316;44.118;27.258;2023-08-06T09:20:12;10.32;;;6.65;;
6564;SDS011;3316;44.118;27.258;2023-08-06T09:22:38;10.43;;;6.97;;
6564;SDS011;3316;44.118;27.258;2023-08-06T09:25:04;10.50;;;6.63;;
6564;SDS011;3316;44.118;27.258;2023-08-06T09:27:34;11.93;;;6.90;;
6564;SDS011;3316;44.118;27.258;2023-08-06T09:30:03;9.23;;;6.25;;
6564;SDS011;3316;44.118;27.258;2023-08-06T09:32:45;13.35;;;6.47;;
6564;SDS011;3316;44.118;27.258;2023-08-06T09:35:16;8.90;;;6.75;;
6564;SDS011;3316;44.118;27.258;2023-08-06T09:37:42;9.57;;;6.35;;
6564;SDS011;3316;44.118;27.258;2023-08-06T09:42:52;9.93;;;6.75;;
6564;SDS011;3316;44.118;27.258;2023-08-06T09:45:18;11.88;;;6.60;;
6564;SDS011;3316;44.118;27.258;2023-08-06T09:47:43;10.45;;;6.88;;
6564;SDS011;3316;44.118;27.258;2023-08-06T09:50:18;11.60;;;7.82;;
6564;SDS011;3316;44.118;27.258;2023-08-06T09:52:44;9.85;;;6.93;;
6564;SDS011;3316;44.118;27.258;2023-08-06T09:55:11;9.75;;;6.70;;
6564;SDS011;3316;44.118;27.258;2023-08-06T09:57:37;13.02;;;8.27;;
6564;SDS011;3316;44.118;27.258;2023-08-06T10:00:04;15.43;;;8.98;;
6564;SDS011;3316;44.118;27.258;2023-08-06T10:02:30;12.88;;;7.40;;
6564;SDS011;3316;44.118;27.258;2023-08-06T10:04:58;20.30;;;10.75;;
6564;SDS011;3316;44.118;27.258;2023-08-06T10:07:24;12.30;;;7.75;;
6564;SDS011;3316;44.118;27.258;2023-08-06T10:09:50;8.40;;;7.38;;
6564;SDS011;3316;44.118;27.258;2023-08-06T10:12:15;12.13;;;8.50;;
6564;SDS011;3316;44.118;27.258;2023-08-06T10:14:44;13.02;;;8.27;;
6564;SDS011;3316;44.118;27.258;2023-08-06T10:17:12;13.15;;;9.55;;
6564;SDS011;3316;44.118;27.258;2023-08-06T10:19:38;14.32;;;8.60;;
6564;SDS011;3316;44.118;27.258;2023-08-06T10:24:46;12.15;;;8.55;;
6564;SDS011;3316;44.118;27.258;2023-08-06T10:27:11;19.00;;;10.45;;
6564;SDS011;3316;44.118;27.258;2023-08-06T10:29:37;14.18;;;8.80;;
6564;SDS011;3316;44.118;27.258;2023-08-06T10:32:03;19.70;;;11.13;;
6564;SDS011;3316;44.118;27.258;2023-08-06T10:34:53;12.63;;;9.40;;
6564;SDS011;3316;44.118;27.258;2023-08-06T10:37:24;14.32;;;8.68;;
6564;SDS011;3316;44.118;27.258;2023-08-06T10:40:00;12.75;;;7.57;;
6564;SDS011;3316;44.118;27.258;2023-08-06T10:42:29;10.38;;;7.93;;
6564;SDS011;3316;44.118;27.258;2023-08-06T10:45:11;11.38;;;7.72;;
6564;SDS011;3316;44.118;27.258;2023-08-06T10:47:41;13.95;;;7.80;;
6564;SDS011;3316;44.118;27.258;2023-08-06T10:50:10;8.82;;;7.50;;
6564;SDS011;3316;44.118;27.258;2023-08-06T10:52:37;10.70;;;7.85;;
6564;SDS011;3316;44.118;27.258;2023-08-06T10:55:02;11.23;;;8.25;;
6564;SDS011;3316;44.118;27.258;2023-08-06T10:57:28;13.60;;;7.88;;
6564;SDS011;3316;44.118;27.258;2023-08-06T10:59:53;10.50;;;7.93;;
6564;SDS011;3316;44.118;27.258;2023-08-06T11:02:19;14.60;;;8.10;;
6564;SDS011;3316;44.118;27.258;2023-08-06T11:04:44;13.82;;;7.85;;
6564;SDS011;3316;44.118;27.258;2023-08-06T11:07:10;9.32;;;7.68;;
6564;SDS011;3316;44.118;27.258;2023-08-06T11:09:35;10.18;;;7.47;;
6564;SDS011;3316;44.118;27.258;2023-08-06T11:12:02;14.40;;;7.88;;
6564;SDS011;3316;44.118;27.258;2023-08-06T11:14:30;8.73;;;7.10;;
6564;SDS011;3316;44.118;27.258;2023-08-06T11:16:55;14.27;;;7.60;;
6564;SDS011;3316;44.118;27.258;2023-08-06T11:19:21;9.73;;;7.65;;
6564;SDS011;3316;44.118;27.258;2023-08-06T11:21:49;9.32;;;7.70;;
6564;SDS011;3316;44.118;27.258;2023-08-06T11:24:16;13.48;;;7.18;;
6564;SDS011;3316;44.118;27.258;2023-08-06T11:26:42;22.55;;;7.38;;
6564;SDS011;3316;44.118;27.258;2023-08-06T11:29:09;16.90;;;7.63;;
6564;SDS011;3316;44.118;27.258;2023-08-06T11:31:35;13.70;;;8.75;;
6564;SDS011;3316;44.118;27.258;2023-08-06T11:34:01;8.25;;;6.65;;
6564;SDS011;3316;44.118;27.258;2023-08-06T11:38:56;12.38;;;5.63;;
6564;SDS011;3316;44.118;27.258;2023-08-06T11:41:22;12.35;;;4.97;;
6564;SDS011;3316;44.118;27.258;2023-08-06T11:43:47;9.85;;;5.45;;
6564;SDS011;3316;44.118;27.258;2023-08-06T11:46:13;9.52;;;4.80;;
6564;SDS011;3316;44.118;27.258;2023-08-06T11:48:54;8.23;;;5.35;;
6564;SDS011;3316;44.118;27.258;2023-08-06T11:51:24;8.13;;;4.88;;
6564;SDS011;3316;44.118;27.258;2023-08-06T11:53:56;7.28;;;5.05;;
6564;SDS011;3316;44.118;27.258;2023-08-06T11:56:23;6.05;;;4.75;;
6564;SDS011;3316;44.118;27.258;2023-08-06T11:58:50;8.45;;;5.55;;
6564;SDS011;3316;44.118;27.258;2023-08-06T12:01:15;23.50;;;5.93;;
6564;SDS011;3316;44.118;27.258;2023-08-06T12:03:41;25.98;;;7.25;;
6564;SDS011;3316;44.118;27.258;2023-08-06T12:06:06;18.55;;;9.55;;
6564;SDS011;3316;44.118;27.258;2023-08-06T12:08:32;8.73;;;5.65;;
6564;SDS011;3316;44.118;27.258;2023-08-06T12:10:58;15.40;;;7.50;;
6564;SDS011;3316;44.118;27.258;2023-08-06T12:13:23;22.38;;;7.45;;
6564;SDS011;3316;44.118;27.258;2023-08-06T12:15:49;12.73;;;6.45;;
6564;SDS011;3316;44.118;27.258;2023-08-06T12:18:17;11.23;;;8.82;;
6564;SDS011;3316;44.118;27.258;2023-08-06T12:20:43;16.98;;;10.52;;
6564;SDS011;3316;44.118;27.258;2023-08-06T12:23:08;16.17;;;10.57;;
6564;SDS011;3316;44.118;27.258;2023-08-06T12:25:34;13.73;;;11.52;;
6564;SDS011;3316;44.118;27.258;2023-08-06T12:28:00;16.40;;;11.77;;
6564;SDS011;3316;44.118;27.258;2023-08-06T12:30:26;20.38;;;13.80;;
6564;SDS011;3316;44.118;27.258;2023-08-06T12:32:51;19.65;;;13.02;;
6564;SDS011;3316;44.118;27.258;2023-08-06T12:35:17;22.58;;;13.35;;
6564;SDS011;3316;44.118;27.258;2023-08-06T12:37:42;17.35;;;12.93;;
6564;SDS011;3316;44.118;27.258;2023-08-06T12:40:09;17.05;;;13.38;;
6564;SDS011;3316;44.118;27.258;2023-08-06T12:42:34;22.75;;;12.93;;
6564;SDS011;3316;44.118;27.258;2023-08-06T12:45:00;15.88;;;11.27;;
6564;SDS011;3316;44.118;27.258;2023-08-06T12:47:25;18.00;;;11.57;;
6564;SDS011;3316;44.118;27.258;2023-08-06T12:49:51;17.58;;;11.82;;
6564;SDS011;3316;44.118;27.258;2023-08-06T12:52:16;24.50;;;12.85;;
6564;SDS011;3316;44.118;27.258;2023-08-06T12:54:44;20.48;;;13.15;;
6564;SDS011;3316;44.118;27.258;2023-08-06T12:57:11;20.27;;;13.18;;
6564;SDS011;3316;44.118;27.258;2023-08-06T12:59:37;17.13;;;12.73;;
6564;SDS011;3316;44.118;27.258;2023-08-06T13:02:02;22.65;;;13.90;;
6564;SDS011;3316;44.118;27.258;2023-08-06T13:04:28;22.30;;;14.27;;
6564;SDS011;3316;44.118;27.258;2023-08-06T13:06:54;26.88;;;14.45;;
6564;SDS011;3316;44.118;27.258;2023-08-06T13:09:19;19.15;;;13.07;;
6564;SDS011;3316;44.118;27.258;2023-08-06T13:11:45;18.33;;;11.65;;
6564;SDS011;3316;44.118;27.258;2023-08-06T13:14:15;15.80;;;11.85;;
6564;SDS011;3316;44.118;27.258;2023-08-06T13:16:41;16.17;;;12.15;;
6564;SDS011;3316;44.118;27.258;2023-08-06T13:19:08;16.50;;;11.75;;
6564;SDS011;3316;44.118;27.258;2023-08-06T13:24:05;16.52;;;11.70;;
6564;SDS011;3316;44.118;27.258;2023-08-06T13:26:30;13.88;;;10.60;;
6564;SDS011;3316;44.118;27.258;2023-08-06T13:28:56;19.05;;;12.38;;
6564;SDS011;3316;44.118;27.258;2023-08-06T13:31:23;17.52;;;10.55;;
6564;SDS011;3316;44.118;27.258;2023-08-06T13:33:48;11.30;;;9.57;;
6564;SDS011;3316;44.118;27.258;2023-08-06T13:36:15;11.63;;;9.30;;
6564;SDS011;3316;44.118;27.258;2023-08-06T13:38:41;13.88;;;9.20;;
6564;SDS011;3316;44.118;27.258;2023-08-06T13:41:06;14.00;;;8.45;;
6564;SDS011;3316;44.118;27.258;2023-08-06T13:43:32;16.35;;;9.30;;
6564;SDS011;3316;44.118;27.258;2023-08-06T13:45:57;16.60;;;8.82;;
6564;SDS011;3316;44.118;27.258;2023-08-06T13:48:23;13.77;;;9.05;;
6564;SDS011;3316;44.118;27.258;2023-08-06T13:50:48;15.38;;;8.75;;
6564;SDS011;3316;44.118;27.258;2023-08-06T13:53:13;10.40;;;8.45;;
6564;SDS011;3316;44.118;27.258;2023-08-06T13:55:39;11.75;;;7.70;;
6564;SDS011;3316;44.118;27.258;2023-08-06T13:58:04;12.02;;;8.15;;
6564;SDS011;3316;44.118;27.258;2023-08-06T14:00:30;11.60;;;8.05;;
6564;SDS011;3316;44.118;27.258;2023-08-06T14:02:55;9.52;;;6.90;;
6564;SDS011;3316;44.118;27.258;2023-08-06T14:05:21;9.80;;;7.72;;
6564;SDS011;3316;44.118;27.258;2023-08-06T14:07:46;10.65;;;6.45;;
6564;SDS011;3316;44.118;27.258;2023-08-06T14:10:12;10.95;;;6.88;;
6564;SDS011;3316;44.118;27.258;2023-08-06T14:12:37;16.95;;;8.90;;
6564;SDS011;3316;44.118;27.258;2023-08-06T14:15:03;11.82;;;6.95;;
6564;SDS011;3316;44.118;27.258;2023-08-06T14:17:28;13.25;;;7.20;;
6564;SDS011;3316;44.118;27.258;2023-08-06T14:19:54;9.25;;;6.72;;
6564;SDS011;3316;44.118;27.258;2023-08-06T14:22:19;7.65;;;6.32;;
6564;SDS011;3316;44.118;27.258;2023-08-06T14:24:47;9.35;;;6.05;;
6564;SDS011;3316;44.118;27.258;2023-08-06T14:27:12;9.43;;;6.55;;
6564;SDS011;3316;44.118;27.258;2023-08-06T14:29:38;7.97;;;5.78;;
6564;SDS011;3316;44.118;27.258;2023-08-06T14:32:03;57.97;;;25.52;;
6564;SDS011;3316;44.118;27.258;2023-08-06T14:34:29;14.13;;;9.18;;
6564;SDS011;3316;44.118;27.258;2023-08-06T14:36:54;9.60;;;6.05;;
6564;SDS011;3316;44.118;27.258;2023-08-06T14:39:20;9.02;;;5.95;;
6564;SDS011;3316;44.118;27.258;2023-08-06T14:41:45;7.53;;;6.45;;
6564;SDS011;3316;44.118;27.258;2023-08-06T14:44:10;13.65;;;6.80;;
6564;SDS011;3316;44.118;27.258;2023-08-06T14:46:36;8.75;;;6.45;;
6564;SDS011;3316;44.118;27.258;2023-08-06T14:49:02;9.90;;;7.60;;
6564;SDS011;3316;44.118;27.258;2023-08-06T14:51:27;9.25;;;8.13;;
6564;SDS011;3316;44.118;27.258;2023-08-06T14:53:53;12.98;;;9.07;;
6564;SDS011;3316;44.118;27.258;2023-08-06T14:56:18;10.73;;;8.32;;